sensor_id;sensor_type;location;lat;lon;timestamp;P1;durP1;ratioP1;P2;durP2;ratioP2
17886;SDS011;9069;52.044;7.472;2022-12-18T00:04:05;33.40;;;13.93;;
17886;SDS011;9069;52.044;7.472;2022-12-18T00:06:34;38.80;;;14.47;;
17886;SDS011;9069;52.044;7.472;2022-12-18T00:09:02;31.30;;;14.57;;
17886;SDS011;9069;52.044;7.472;2022-12-18T00:11:30;40.03;;;15.67;;
17886;SDS011;9069;52.044;7.472;2022-12-18T00:13:57;35.73;;;14.60;;
17886;SDS011;9069;52.044;7.472;2022-12-18T00:16:25;33.33;;;14.50;;
17886;SDS011;9069;52.044;7.472;2022-12-18T00:18:54;31.53;;;13.23;;
17886;SDS011;9069;52.044;7.472;2022-12-18T00:21:22;36.17;;;14.93;;
17886;SDS011;9069;52.044;7.472;2022-12-18T00:23:49;26.73;;;13.00;;
17886;SDS011;9069;52.044;7.472;2022-12-18T00:26:27;34.57;;;13.23;;
17886;SDS011;9069;52.044;7.472;2022-12-18T00:29:03;29.90;;;12.67;;
17886;SDS011;9069;52.044;7.472;2022-12-18T00:31:36;30.60;;;14.27;;
17886;SDS011;9069;52.044;7.472;2022-12-18T00:34:03;32.43;;;13.07;;
17886;SDS011;9069;52.044;7.472;2022-12-18T00:36:32;29.73;;;14.07;;
17886;SDS011;9069;52.044;7.472;2022-12-18T00:39:03;31.57;;;14.10;;
17886;SDS011;9069;52.044;7.472;2022-12-18T00:41:31;24.70;;;12.13;;
17886;SDS011;9069;52.044;7.472;2022-12-18T00:44:17;26.90;;;13.03;;
17886;SDS011;9069;52.044;7.472;2022-12-18T00:46:45;32.10;;;13.37;;
17886;SDS011;9069;52.044;7.472;2022-12-18T00:49:12;27.10;;;13.23;;
17886;SDS011;9069;52.044;7.472;2022-12-18T00:51:39;30.10;;;12.63;;
17886;SDS011;9069;52.044;7.472;2022-12-18T00:54:06;27.23;;;12.90;;
17886;SDS011;9069;52.044;7.472;2022-12-18T00:56:34;31.40;;;13.23;;
17886;SDS011;9069;52.044;7.472;2022-12-18T00:59:10;29.20;;;12.10;;
17886;SDS011;9069;52.044;7.472;2022-12-18T01:01:37;31.50;;;12.50;;
17886;SDS011;9069;52.044;7.472;2022-12-18T01:04:04;25.63;;;11.17;;
17886;SDS011;9069;52.044;7.472;2022-12-18T01:06:31;24.30;;;11.33;;
17886;SDS011;9069;52.044;7.472;2022-12-18T01:08:58;21.23;;;10.17;;
17886;SDS011;9069;52.044;7.472;2022-12-18T01:11:25;24.77;;;10.40;;
17886;SDS011;9069;52.044;7.472;2022-12-18T01:13:53;23.07;;;10.10;;
17886;SDS011;9069;52.044;7.472;2022-12-18T01:16:21;21.67;;;9.87;;
17886;SDS011;9069;52.044;7.472;2022-12-18T01:18:50;21.37;;;9.37;;
17886;SDS011;9069;52.044;7.472;2022-12-18T01:21:20;22.23;;;9.30;;
17886;SDS011;9069;52.044;7.472;2022-12-18T01:23:50;26.83;;;11.23;;
17886;SDS011;9069;52.044;7.472;2022-12-18T01:26:18;26.23;;;10.70;;
17886;SDS011;9069;52.044;7.472;2022-12-18T01:28:45;26.93;;;11.23;;
17886;SDS011;9069;52.044;7.472;2022-12-18T01:31:16;21.10;;;10.87;;
17886;SDS011;9069;52.044;7.472;2022-12-18T01:33:43;27.30;;;11.77;;
17886;SDS011;9069;52.044;7.472;2022-12-18T01:36:18;23.97;;;10.53;;
17886;SDS011;9069;52.044;7.472;2022-12-18T01:38:56;28.93;;;10.97;;
17886;SDS011;9069;52.044;7.472;2022-12-18T01:41:25;26.60;;;11.97;;
17886;SDS011;9069;52.044;7.472;2022-12-18T01:47:38;22.40;;;10.23;;
17886;SDS011;9069;52.044;7.472;2022-12-18T01:50:18;28.70;;;9.97;;
17886;SDS011;9069;52.044;7.472;2022-12-18T01:52:53;23.53;;;10.13;;
17886;SDS011;9069;52.044;7.472;2022-12-18T01:55:35;30.73;;;11.17;;
17886;SDS011;9069;52.044;7.472;2022-12-18T01:58:08;22.30;;;10.20;;
17886;SDS011;9069;52.044;7.472;2022-12-18T02:00:35;22.43;;;10.13;;
17886;SDS011;9069;52.044;7.472;2022-12-18T02:03:02;21.30;;;9.83;;
17886;SDS011;9069;52.044;7.472;2022-12-18T02:08:26;23.67;;;10.30;;
17886;SDS011;9069;52.044;7.472;2022-12-18T02:11:18;22.10;;;9.17;;
17886;SDS011;9069;52.044;7.472;2022-12-18T02:14:14;19.03;;;8.60;;
17886;SDS011;9069;52.044;7.472;2022-12-18T02:17:11;18.00;;;8.80;;
17886;SDS011;9069;52.044;7.472;2022-12-18T02:25:52;20.93;;;8.83;;
17886;SDS011;9069;52.044;7.472;2022-12-18T02:28:19;20.20;;;8.80;;
17886;SDS011;9069;52.044;7.472;2022-12-18T02:30:51;23.47;;;9.63;;
17886;SDS011;9069;52.044;7.472;2022-12-18T02:33:22;16.70;;;8.13;;
17886;SDS011;9069;52.044;7.472;2022-12-18T02:35:52;15.40;;;7.90;;
17886;SDS011;9069;52.044;7.472;2022-12-18T02:38:21;18.23;;;7.93;;
17886;SDS011;9069;52.044;7.472;2022-12-18T02:40:50;17.10;;;7.83;;
17886;SDS011;9069;52.044;7.472;2022-12-18T02:43:20;18.83;;;8.83;;
17886;SDS011;9069;52.044;7.472;2022-12-18T02:45:48;14.90;;;7.80;;
17886;SDS011;9069;52.044;7.472;2022-12-18T02:48:26;20.93;;;8.23;;
17886;SDS011;9069;52.044;7.472;2022-12-18T02:53:53;18.23;;;8.17;;
17886;SDS011;9069;52.044;7.472;2022-12-18T02:56:28;16.90;;;7.57;;
17886;SDS011;9069;52.044;7.472;2022-12-18T02:59:04;19.40;;;8.27;;
17886;SDS011;9069;52.044;7.472;2022-12-18T03:01:49;20.83;;;7.83;;
17886;SDS011;9069;52.044;7.472;2022-12-18T03:04:35;16.83;;;8.03;;
17886;SDS011;9069;52.044;7.472;2022-12-18T03:07:11;16.63;;;8.90;;
17886;SDS011;9069;52.044;7.472;2022-12-18T03:09:46;13.80;;;7.73;;
17886;SDS011;9069;52.044;7.472;2022-12-18T03:17:32;15.63;;;7.17;;
17886;SDS011;9069;52.044;7.472;2022-12-18T03:20:03;16.27;;;6.40;;
17886;SDS011;9069;52.044;7.472;2022-12-18T03:22:34;17.87;;;6.77;;
17886;SDS011;9069;52.044;7.472;2022-12-18T03:25:04;15.30;;;7.73;;
17886;SDS011;9069;52.044;7.472;2022-12-18T03:27:35;12.30;;;6.33;;
17886;SDS011;9069;52.044;7.472;2022-12-18T03:30:09;12.83;;;5.97;;
17886;SDS011;9069;52.044;7.472;2022-12-18T03:35:09;14.13;;;6.23;;
17886;SDS011;9069;52.044;7.472;2022-12-18T03:37:39;15.40;;;6.67;;
17886;SDS011;9069;52.044;7.472;2022-12-18T03:40:07;15.73;;;6.10;;
17886;SDS011;9069;52.044;7.472;2022-12-18T03:45:23;15.23;;;6.43;;
17886;SDS011;9069;52.044;7.472;2022-12-18T03:47:59;13.33;;;6.10;;
17886;SDS011;9069;52.044;7.472;2022-12-18T03:50:47;17.53;;;6.97;;
17886;SDS011;9069;52.044;7.472;2022-12-18T03:55:56;16.30;;;6.70;;
17886;SDS011;9069;52.044;7.472;2022-12-18T03:58:30;24.30;;;9.20;;
17886;SDS011;9069;52.044;7.472;2022-12-18T04:01:15;22.90;;;9.03;;
17886;SDS011;9069;52.044;7.472;2022-12-18T04:03:44;22.57;;;9.23;;
17886;SDS011;9069;52.044;7.472;2022-12-18T04:06:16;19.20;;;8.10;;
17886;SDS011;9069;52.044;7.472;2022-12-18T04:08:44;20.10;;;7.57;;
17886;SDS011;9069;52.044;7.472;2022-12-18T04:11:15;13.73;;;6.63;;
17886;SDS011;9069;52.044;7.472;2022-12-18T04:13:44;11.97;;;5.93;;
17886;SDS011;9069;52.044;7.472;2022-12-18T04:18:59;12.97;;;5.30;;
17886;SDS011;9069;52.044;7.472;2022-12-18T04:21:29;13.90;;;5.63;;
17886;SDS011;9069;52.044;7.472;2022-12-18T04:23:56;9.30;;;5.30;;
17886;SDS011;9069;52.044;7.472;2022-12-18T04:26:23;13.67;;;5.77;;
17886;SDS011;9069;52.044;7.472;2022-12-18T04:29:00;12.97;;;5.47;;
17886;SDS011;9069;52.044;7.472;2022-12-18T04:31:27;9.50;;;5.13;;
17886;SDS011;9069;52.044;7.472;2022-12-18T04:33:55;7.73;;;4.83;;
17886;SDS011;9069;52.044;7.472;2022-12-18T04:36:22;11.97;;;5.53;;
17886;SDS011;9069;52.044;7.472;2022-12-18T04:38:52;10.50;;;5.73;;
17886;SDS011;9069;52.044;7.472;2022-12-18T04:41:19;10.03;;;5.13;;
17886;SDS011;9069;52.044;7.472;2022-12-18T04:43:47;14.57;;;6.50;;
17886;SDS011;9069;52.044;7.472;2022-12-18T04:46:14;18.73;;;7.63;;
17886;SDS011;9069;52.044;7.472;2022-12-18T04:48:41;15.60;;;7.60;;
17886;SDS011;9069;52.044;7.472;2022-12-18T04:51:07;16.73;;;7.70;;
17886;SDS011;9069;52.044;7.472;2022-12-18T04:53:34;17.07;;;7.73;;
17886;SDS011;9069;52.044;7.472;2022-12-18T04:58:35;17.60;;;7.07;;
17886;SDS011;9069;52.044;7.472;2022-12-18T05:01:03;13.30;;;6.07;;
17886;SDS011;9069;52.044;7.472;2022-12-18T05:03:29;11.67;;;5.80;;
17886;SDS011;9069;52.044;7.472;2022-12-18T05:05:56;9.20;;;5.03;;
17886;SDS011;9069;52.044;7.472;2022-12-18T05:08:23;11.97;;;5.03;;
17886;SDS011;9069;52.044;7.472;2022-12-18T05:10:57;12.83;;;5.30;;
17886;SDS011;9069;52.044;7.472;2022-12-18T05:13:25;9.83;;;5.07;;
17886;SDS011;9069;52.044;7.472;2022-12-18T05:15:52;13.37;;;4.93;;
17886;SDS011;9069;52.044;7.472;2022-12-18T05:18:20;9.07;;;4.27;;
17886;SDS011;9069;52.044;7.472;2022-12-18T05:20:49;8.00;;;4.37;;
17886;SDS011;9069;52.044;7.472;2022-12-18T05:23:16;8.20;;;4.93;;
17886;SDS011;9069;52.044;7.472;2022-12-18T05:25:51;10.13;;;4.93;;
17886;SDS011;9069;52.044;7.472;2022-12-18T05:28:22;13.27;;;5.77;;
17886;SDS011;9069;52.044;7.472;2022-12-18T05:30:54;12.43;;;6.20;;
17886;SDS011;9069;52.044;7.472;2022-12-18T05:33:23;14.43;;;6.57;;
17886;SDS011;9069;52.044;7.472;2022-12-18T05:35:52;13.50;;;6.47;;
17886;SDS011;9069;52.044;7.472;2022-12-18T05:38:21;9.00;;;4.70;;
17886;SDS011;9069;52.044;7.472;2022-12-18T05:40:49;10.97;;;5.63;;
17886;SDS011;9069;52.044;7.472;2022-12-18T05:43:16;10.87;;;4.93;;
17886;SDS011;9069;52.044;7.472;2022-12-18T05:45:47;9.60;;;5.23;;
17886;SDS011;9069;52.044;7.472;2022-12-18T05:48:14;8.57;;;4.87;;
17886;SDS011;9069;52.044;7.472;2022-12-18T05:50:42;7.57;;;3.93;;
17886;SDS011;9069;52.044;7.472;2022-12-18T05:53:12;9.90;;;4.63;;
17886;SDS011;9069;52.044;7.472;2022-12-18T05:55:41;10.23;;;4.93;;
17886;SDS011;9069;52.044;7.472;2022-12-18T05:58:09;9.27;;;5.07;;
17886;SDS011;9069;52.044;7.472;2022-12-18T06:00:38;13.43;;;4.97;;
17886;SDS011;9069;52.044;7.472;2022-12-18T06:03:10;12.83;;;5.03;;
17886;SDS011;9069;52.044;7.472;2022-12-18T06:05:40;8.80;;;4.47;;
17886;SDS011;9069;52.044;7.472;2022-12-18T06:08:08;10.73;;;4.97;;
17886;SDS011;9069;52.044;7.472;2022-12-18T06:10:36;12.53;;;5.67;;
17886;SDS011;9069;52.044;7.472;2022-12-18T06:13:04;12.20;;;5.27;;
17886;SDS011;9069;52.044;7.472;2022-12-18T06:15:31;12.37;;;5.47;;
17886;SDS011;9069;52.044;7.472;2022-12-18T06:17:57;15.53;;;7.47;;
17886;SDS011;9069;52.044;7.472;2022-12-18T06:20:26;13.83;;;7.30;;
17886;SDS011;9069;52.044;7.472;2022-12-18T06:22:58;12.83;;;6.63;;
17886;SDS011;9069;52.044;7.472;2022-12-18T06:25:25;20.93;;;8.67;;
17886;SDS011;9069;52.044;7.472;2022-12-18T06:27:52;14.23;;;7.73;;
17886;SDS011;9069;52.044;7.472;2022-12-18T06:30:19;15.27;;;7.20;;
17886;SDS011;9069;52.044;7.472;2022-12-18T06:32:47;16.40;;;6.17;;
17886;SDS011;9069;52.044;7.472;2022-12-18T06:35:21;14.87;;;6.37;;
17886;SDS011;9069;52.044;7.472;2022-12-18T06:37:48;15.23;;;6.10;;
17886;SDS011;9069;52.044;7.472;2022-12-18T06:40:14;12.50;;;5.33;;
17886;SDS011;9069;52.044;7.472;2022-12-18T06:42:41;10.90;;;4.70;;
17886;SDS011;9069;52.044;7.472;2022-12-18T06:45:08;10.53;;;5.50;;
17886;SDS011;9069;52.044;7.472;2022-12-18T06:47:35;13.70;;;6.63;;
17886;SDS011;9069;52.044;7.472;2022-12-18T06:50:02;10.10;;;5.17;;
17886;SDS011;9069;52.044;7.472;2022-12-18T06:52:31;14.33;;;7.03;;
17886;SDS011;9069;52.044;7.472;2022-12-18T06:54:58;11.93;;;6.50;;
17886;SDS011;9069;52.044;7.472;2022-12-18T06:57:24;15.60;;;6.90;;
17886;SDS011;9069;52.044;7.472;2022-12-18T06:59:51;16.47;;;7.27;;
17886;SDS011;9069;52.044;7.472;2022-12-18T07:02:18;13.70;;;6.80;;
17886;SDS011;9069;52.044;7.472;2022-12-18T07:04:45;17.50;;;7.53;;
17886;SDS011;9069;52.044;7.472;2022-12-18T07:07:11;14.47;;;7.60;;
17886;SDS011;9069;52.044;7.472;2022-12-18T07:09:38;17.87;;;8.10;;
17886;SDS011;9069;52.044;7.472;2022-12-18T07:12:04;21.33;;;7.77;;
17886;SDS011;9069;52.044;7.472;2022-12-18T07:14:32;17.50;;;7.30;;
17886;SDS011;9069;52.044;7.472;2022-12-18T07:16:59;16.63;;;8.03;;
17886;SDS011;9069;52.044;7.472;2022-12-18T07:19:26;16.57;;;7.57;;
17886;SDS011;9069;52.044;7.472;2022-12-18T07:21:54;16.87;;;7.43;;
17886;SDS011;9069;52.044;7.472;2022-12-18T07:24:21;19.90;;;8.83;;
17886;SDS011;9069;52.044;7.472;2022-12-18T07:26:47;15.83;;;7.17;;
17886;SDS011;9069;52.044;7.472;2022-12-18T07:29:14;16.37;;;7.47;;
17886;SDS011;9069;52.044;7.472;2022-12-18T07:31:41;14.87;;;7.37;;
17886;SDS011;9069;52.044;7.472;2022-12-18T07:34:11;18.83;;;9.10;;
17886;SDS011;9069;52.044;7.472;2022-12-18T07:36:39;19.47;;;9.73;;
17886;SDS011;9069;52.044;7.472;2022-12-18T07:39:06;19.90;;;9.77;;
17886;SDS011;9069;52.044;7.472;2022-12-18T07:41:33;39.67;;;23.30;;
17886;SDS011;9069;52.044;7.472;2022-12-18T07:44:09;30.43;;;15.23;;
17886;SDS011;9069;52.044;7.472;2022-12-18T07:46:36;17.30;;;10.00;;
17886;SDS011;9069;52.044;7.472;2022-12-18T07:49:03;18.63;;;8.33;;
17886;SDS011;9069;52.044;7.472;2022-12-18T07:51:30;17.60;;;7.47;;
17886;SDS011;9069;52.044;7.472;2022-12-18T07:53:56;14.00;;;7.13;;
17886;SDS011;9069;52.044;7.472;2022-12-18T07:56:23;14.30;;;6.47;;
17886;SDS011;9069;52.044;7.472;2022-12-18T07:58:54;13.00;;;6.60;;
17886;SDS011;9069;52.044;7.472;2022-12-18T08:01:21;13.63;;;6.67;;
17886;SDS011;9069;52.044;7.472;2022-12-18T08:03:48;12.10;;;6.20;;
17886;SDS011;9069;52.044;7.472;2022-12-18T08:06:17;13.97;;;6.73;;
17886;SDS011;9069;52.044;7.472;2022-12-18T08:08:43;16.87;;;6.83;;
17886;SDS011;9069;52.044;7.472;2022-12-18T08:11:10;10.73;;;5.97;;
17886;SDS011;9069;52.044;7.472;2022-12-18T08:13:37;15.43;;;6.53;;
17886;SDS011;9069;52.044;7.472;2022-12-18T08:16:05;14.10;;;6.57;;
17886;SDS011;9069;52.044;7.472;2022-12-18T08:18:34;15.47;;;6.90;;
17886;SDS011;9069;52.044;7.472;2022-12-18T08:21:11;12.47;;;5.80;;
17886;SDS011;9069;52.044;7.472;2022-12-18T08:23:39;13.30;;;5.80;;
17886;SDS011;9069;52.044;7.472;2022-12-18T08:26:08;12.87;;;5.73;;
17886;SDS011;9069;52.044;7.472;2022-12-18T08:28:36;16.63;;;6.83;;
17886;SDS011;9069;52.044;7.472;2022-12-18T08:31:03;13.60;;;6.50;;
17886;SDS011;9069;52.044;7.472;2022-12-18T08:33:30;14.70;;;6.60;;
17886;SDS011;9069;52.044;7.472;2022-12-18T08:35:58;11.67;;;6.43;;
17886;SDS011;9069;52.044;7.472;2022-12-18T08:38:25;13.83;;;6.47;;
17886;SDS011;9069;52.044;7.472;2022-12-18T08:40:58;14.27;;;6.47;;
17886;SDS011;9069;52.044;7.472;2022-12-18T08:43:26;11.90;;;5.97;;
17886;SDS011;9069;52.044;7.472;2022-12-18T08:46:12;12.00;;;5.80;;
17886;SDS011;9069;52.044;7.472;2022-12-18T08:48:41;11.90;;;6.27;;
17886;SDS011;9069;52.044;7.472;2022-12-18T08:51:08;11.37;;;5.70;;
17886;SDS011;9069;52.044;7.472;2022-12-18T08:53:35;12.43;;;6.33;;
17886;SDS011;9069;52.044;7.472;2022-12-18T08:56:03;11.87;;;6.43;;
17886;SDS011;9069;52.044;7.472;2022-12-18T08:58:31;11.20;;;6.10;;
17886;SDS011;9069;52.044;7.472;2022-12-18T09:01:05;11.80;;;7.03;;
17886;SDS011;9069;52.044;7.472;2022-12-18T09:03:35;14.67;;;6.47;;
17886;SDS011;9069;52.044;7.472;2022-12-18T09:06:02;11.83;;;5.77;;
17886;SDS011;9069;52.044;7.472;2022-12-18T09:08:29;12.37;;;5.63;;
17886;SDS011;9069;52.044;7.472;2022-12-18T09:10:56;15.63;;;5.53;;
17886;SDS011;9069;52.044;7.472;2022-12-18T09:13:23;11.40;;;5.90;;
17886;SDS011;9069;52.044;7.472;2022-12-18T09:15:51;8.80;;;5.27;;
17886;SDS011;9069;52.044;7.472;2022-12-18T09:18:19;11.40;;;5.67;;
17886;SDS011;9069;52.044;7.472;2022-12-18T09:20:47;8.73;;;4.80;;
17886;SDS011;9069;52.044;7.472;2022-12-18T09:23:14;9.60;;;5.30;;
17886;SDS011;9069;52.044;7.472;2022-12-18T09:25:40;11.37;;;6.07;;
17886;SDS011;9069;52.044;7.472;2022-12-18T09:28:14;14.70;;;5.93;;
17886;SDS011;9069;52.044;7.472;2022-12-18T09:30:46;10.33;;;5.17;;
17886;SDS011;9069;52.044;7.472;2022-12-18T09:33:15;15.77;;;5.80;;
17886;SDS011;9069;52.044;7.472;2022-12-18T09:35:43;10.33;;;5.93;;
17886;SDS011;9069;52.044;7.472;2022-12-18T09:38:12;12.10;;;6.07;;
17886;SDS011;9069;52.044;7.472;2022-12-18T09:40:48;19.90;;;6.20;;
17886;SDS011;9069;52.044;7.472;2022-12-18T09:43:22;12.70;;;5.83;;
17886;SDS011;9069;52.044;7.472;2022-12-18T09:45:55;15.87;;;6.17;;
17886;SDS011;9069;52.044;7.472;2022-12-18T09:48:34;9.77;;;6.07;;
17886;SDS011;9069;52.044;7.472;2022-12-18T09:51:07;11.53;;;6.27;;
17886;SDS011;9069;52.044;7.472;2022-12-18T09:53:41;13.67;;;6.23;;
17886;SDS011;9069;52.044;7.472;2022-12-18T09:56:15;12.93;;;6.00;;
17886;SDS011;9069;52.044;7.472;2022-12-18T09:59:09;15.77;;;6.50;;
17886;SDS011;9069;52.044;7.472;2022-12-18T10:01:31;12.13;;;5.33;;
17886;SDS011;9069;52.044;7.472;2022-12-18T10:04:09;9.90;;;5.27;;
17886;SDS011;9069;52.044;7.472;2022-12-18T10:06:47;11.90;;;5.70;;
17886;SDS011;9069;52.044;7.472;2022-12-18T10:09:33;11.10;;;5.80;;
17886;SDS011;9069;52.044;7.472;2022-12-18T10:12:30;12.87;;;6.40;;
17886;SDS011;9069;52.044;7.472;2022-12-18T10:17:45;11.53;;;6.20;;
17886;SDS011;9069;52.044;7.472;2022-12-18T10:20:27;11.30;;;6.07;;
17886;SDS011;9069;52.044;7.472;2022-12-18T10:23:05;12.60;;;6.50;;
17886;SDS011;9069;52.044;7.472;2022-12-18T10:25:55;12.23;;;6.03;;
17886;SDS011;9069;52.044;7.472;2022-12-18T10:28:27;12.07;;;6.63;;
17886;SDS011;9069;52.044;7.472;2022-12-18T10:30:56;16.17;;;7.37;;
17886;SDS011;9069;52.044;7.472;2022-12-18T10:33:24;15.37;;;7.57;;
17886;SDS011;9069;52.044;7.472;2022-12-18T10:35:55;13.37;;;7.10;;
17886;SDS011;9069;52.044;7.472;2022-12-18T10:38:31;13.17;;;7.80;;
17886;SDS011;9069;52.044;7.472;2022-12-18T10:40:59;14.63;;;6.77;;
17886;SDS011;9069;52.044;7.472;2022-12-18T10:43:35;10.60;;;6.33;;
17886;SDS011;9069;52.044;7.472;2022-12-18T10:46:04;14.33;;;6.20;;
17886;SDS011;9069;52.044;7.472;2022-12-18T10:48:49;10.70;;;5.67;;
17886;SDS011;9069;52.044;7.472;2022-12-18T10:51:34;14.53;;;6.33;;
17886;SDS011;9069;52.044;7.472;2022-12-18T10:54:04;10.50;;;5.60;;
17886;SDS011;9069;52.044;7.472;2022-12-18T10:56:40;13.03;;;5.63;;
17886;SDS011;9069;52.044;7.472;2022-12-18T10:59:10;10.30;;;5.53;;
17886;SDS011;9069;52.044;7.472;2022-12-18T11:01:54;14.93;;;6.90;;
17886;SDS011;9069;52.044;7.472;2022-12-18T11:04:23;11.33;;;6.77;;
17886;SDS011;9069;52.044;7.472;2022-12-18T11:06:53;10.37;;;5.60;;
17886;SDS011;9069;52.044;7.472;2022-12-18T11:09:21;15.50;;;6.90;;
17886;SDS011;9069;52.044;7.472;2022-12-18T11:11:50;11.20;;;5.77;;
17886;SDS011;9069;52.044;7.472;2022-12-18T11:14:52;11.87;;;6.17;;
17886;SDS011;9069;52.044;7.472;2022-12-18T11:17:30;15.80;;;6.00;;
17886;SDS011;9069;52.044;7.472;2022-12-18T11:20:01;11.13;;;5.93;;
17886;SDS011;9069;52.044;7.472;2022-12-18T11:22:32;11.43;;;6.07;;
17886;SDS011;9069;52.044;7.472;2022-12-18T11:25:04;11.27;;;5.60;;
17886;SDS011;9069;52.044;7.472;2022-12-18T11:28:05;9.93;;;5.23;;
17886;SDS011;9069;52.044;7.472;2022-12-18T11:33:53;11.93;;;6.07;;
17886;SDS011;9069;52.044;7.472;2022-12-18T11:36:44;11.93;;;6.17;;
17886;SDS011;9069;52.044;7.472;2022-12-18T11:42:09;11.73;;;5.10;;
17886;SDS011;9069;52.044;7.472;2022-12-18T11:44:47;10.53;;;5.37;;
17886;SDS011;9069;52.044;7.472;2022-12-18T11:47:54;11.67;;;6.30;;
17886;SDS011;9069;52.044;7.472;2022-12-18T11:53:02;8.20;;;4.87;;
17886;SDS011;9069;52.044;7.472;2022-12-18T12:09:36;10.93;;;6.37;;
17886;SDS011;9069;52.044;7.472;2022-12-18T12:14:52;12.93;;;6.13;;
17886;SDS011;9069;52.044;7.472;2022-12-18T12:17:57;12.80;;;6.43;;
17886;SDS011;9069;52.044;7.472;2022-12-18T12:20:42;11.80;;;6.13;;
17886;SDS011;9069;52.044;7.472;2022-12-18T12:26:18;10.50;;;6.10;;
17886;SDS011;9069;52.044;7.472;2022-12-18T12:28:53;14.93;;;6.93;;
17886;SDS011;9069;52.044;7.472;2022-12-18T12:34:09;14.30;;;7.00;;
17886;SDS011;9069;52.044;7.472;2022-12-18T12:37:01;11.33;;;5.80;;
17886;SDS011;9069;52.044;7.472;2022-12-18T12:39:42;11.97;;;6.03;;
17886;SDS011;9069;52.044;7.472;2022-12-18T12:42:26;11.77;;;6.00;;
17886;SDS011;9069;52.044;7.472;2022-12-18T12:45:29;11.40;;;6.17;;
17886;SDS011;9069;52.044;7.472;2022-12-18T12:48:18;10.33;;;6.07;;
17886;SDS011;9069;52.044;7.472;2022-12-18T12:50:53;11.67;;;6.40;;
17886;SDS011;9069;52.044;7.472;2022-12-18T12:53:26;11.63;;;6.17;;
17886;SDS011;9069;52.044;7.472;2022-12-18T12:55:59;13.57;;;5.70;;
17886;SDS011;9069;52.044;7.472;2022-12-18T13:02:13;9.10;;;5.30;;
17886;SDS011;9069;52.044;7.472;2022-12-18T13:07:40;8.37;;;5.17;;
17886;SDS011;9069;52.044;7.472;2022-12-18T13:13:01;9.40;;;5.30;;
17886;SDS011;9069;52.044;7.472;2022-12-18T13:18:14;11.00;;;5.17;;
17886;SDS011;9069;52.044;7.472;2022-12-18T13:20:50;11.03;;;5.97;;
17886;SDS011;9069;52.044;7.472;2022-12-18T13:25:59;10.53;;;5.73;;
17886;SDS011;9069;52.044;7.472;2022-12-18T13:28:53;11.23;;;5.53;;
17886;SDS011;9069;52.044;7.472;2022-12-18T13:36:54;9.97;;;5.40;;
17886;SDS011;9069;52.044;7.472;2022-12-18T13:39:23;15.07;;;6.20;;
17886;SDS011;9069;52.044;7.472;2022-12-18T13:44:40;11.77;;;5.33;;
17886;SDS011;9069;52.044;7.472;2022-12-18T13:50:02;10.67;;;5.70;;
17886;SDS011;9069;52.044;7.472;2022-12-18T13:52:46;12.57;;;5.17;;
17886;SDS011;9069;52.044;7.472;2022-12-18T13:55:16;10.40;;;4.83;;
17886;SDS011;9069;52.044;7.472;2022-12-18T13:57:46;12.40;;;6.00;;
17886;SDS011;9069;52.044;7.472;2022-12-18T14:00:27;10.70;;;5.57;;
17886;SDS011;9069;52.044;7.472;2022-12-18T14:02:55;10.93;;;5.50;;
17886;SDS011;9069;52.044;7.472;2022-12-18T14:05:24;10.87;;;5.70;;
17886;SDS011;9069;52.044;7.472;2022-12-18T14:07:58;10.87;;;7.23;;
17886;SDS011;9069;52.044;7.472;2022-12-18T14:10:32;12.03;;;7.73;;
17886;SDS011;9069;52.044;7.472;2022-12-18T14:13:57;11.30;;;6.73;;
17886;SDS011;9069;52.044;7.472;2022-12-18T14:16:11;11.63;;;6.60;;
17886;SDS011;9069;52.044;7.472;2022-12-18T14:21:18;14.60;;;6.07;;
17886;SDS011;9069;52.044;7.472;2022-12-18T14:23:47;16.30;;;6.43;;
17886;SDS011;9069;52.044;7.472;2022-12-18T14:26:33;16.00;;;7.67;;
17886;SDS011;9069;52.044;7.472;2022-12-18T14:29:00;10.47;;;6.27;;
17886;SDS011;9069;52.044;7.472;2022-12-18T14:31:45;11.80;;;6.57;;
17886;SDS011;9069;52.044;7.472;2022-12-18T14:34:15;12.37;;;5.83;;
17886;SDS011;9069;52.044;7.472;2022-12-18T14:36:51;12.90;;;6.40;;
17886;SDS011;9069;52.044;7.472;2022-12-18T14:39:19;12.20;;;6.10;;
17886;SDS011;9069;52.044;7.472;2022-12-18T14:41:48;10.23;;;6.07;;
17886;SDS011;9069;52.044;7.472;2022-12-18T14:44:15;11.87;;;6.03;;
17886;SDS011;9069;52.044;7.472;2022-12-18T14:46:42;11.57;;;6.37;;
17886;SDS011;9069;52.044;7.472;2022-12-18T14:49:23;11.47;;;5.87;;
17886;SDS011;9069;52.044;7.472;2022-12-18T14:51:54;11.40;;;5.83;;
17886;SDS011;9069;52.044;7.472;2022-12-18T14:54:26;8.97;;;5.60;;
17886;SDS011;9069;52.044;7.472;2022-12-18T14:59:39;8.73;;;5.13;;
17886;SDS011;9069;52.044;7.472;2022-12-18T15:02:25;11.57;;;5.90;;
17886;SDS011;9069;52.044;7.472;2022-12-18T15:05:00;11.03;;;5.77;;
17886;SDS011;9069;52.044;7.472;2022-12-18T15:07:38;11.43;;;6.30;;
17886;SDS011;9069;52.044;7.472;2022-12-18T15:18:03;8.33;;;5.10;;
17886;SDS011;9069;52.044;7.472;2022-12-18T15:26:04;10.13;;;5.63;;
17886;SDS011;9069;52.044;7.472;2022-12-18T15:28:39;13.97;;;5.87;;
17886;SDS011;9069;52.044;7.472;2022-12-18T15:33:42;11.47;;;5.60;;
17886;SDS011;9069;52.044;7.472;2022-12-18T15:36:19;8.97;;;4.90;;
17886;SDS011;9069;52.044;7.472;2022-12-18T15:38:52;11.83;;;5.50;;
17886;SDS011;9069;52.044;7.472;2022-12-18T15:41:21;9.40;;;5.40;;
17886;SDS011;9069;52.044;7.472;2022-12-18T15:43:51;9.27;;;5.20;;
17886;SDS011;9069;52.044;7.472;2022-12-18T15:46:19;11.07;;;5.70;;
17886;SDS011;9069;52.044;7.472;2022-12-18T15:48:48;9.87;;;4.80;;
17886;SDS011;9069;52.044;7.472;2022-12-18T15:51:24;11.13;;;4.97;;
17886;SDS011;9069;52.044;7.472;2022-12-18T15:53:55;10.10;;;5.47;;
17886;SDS011;9069;52.044;7.472;2022-12-18T15:56:24;12.50;;;5.87;;
17886;SDS011;9069;52.044;7.472;2022-12-18T15:59:14;8.90;;;4.77;;
17886;SDS011;9069;52.044;7.472;2022-12-18T16:01:43;9.23;;;5.10;;
17886;SDS011;9069;52.044;7.472;2022-12-18T16:04:12;12.63;;;5.40;;
17886;SDS011;9069;52.044;7.472;2022-12-18T16:06:41;9.27;;;5.20;;
17886;SDS011;9069;52.044;7.472;2022-12-18T16:09:28;10.97;;;5.53;;
17886;SDS011;9069;52.044;7.472;2022-12-18T16:11:55;10.30;;;4.97;;
17886;SDS011;9069;52.044;7.472;2022-12-18T16:14:23;11.37;;;6.30;;
17886;SDS011;9069;52.044;7.472;2022-12-18T16:16:55;9.13;;;5.17;;
17886;SDS011;9069;52.044;7.472;2022-12-18T16:19:23;9.43;;;5.93;;
17886;SDS011;9069;52.044;7.472;2022-12-18T16:21:51;9.60;;;4.90;;
17886;SDS011;9069;52.044;7.472;2022-12-18T16:24:21;11.20;;;5.03;;
17886;SDS011;9069;52.044;7.472;2022-12-18T16:26:53;9.77;;;5.03;;
17886;SDS011;9069;52.044;7.472;2022-12-18T16:29:23;9.27;;;5.17;;
17886;SDS011;9069;52.044;7.472;2022-12-18T16:31:53;9.93;;;5.13;;
17886;SDS011;9069;52.044;7.472;2022-12-18T16:34:31;8.87;;;5.17;;
17886;SDS011;9069;52.044;7.472;2022-12-18T16:37:05;10.97;;;6.07;;
17886;SDS011;9069;52.044;7.472;2022-12-18T16:39:33;9.73;;;5.77;;
17886;SDS011;9069;52.044;7.472;2022-12-18T16:42:02;9.43;;;5.40;;
17886;SDS011;9069;52.044;7.472;2022-12-18T16:44:52;12.20;;;6.50;;
17886;SDS011;9069;52.044;7.472;2022-12-18T16:47:18;12.67;;;6.97;;
17886;SDS011;9069;52.044;7.472;2022-12-18T16:49:45;12.20;;;6.45;;
17886;SDS011;9069;52.044;7.472;2022-12-18T16:52:12;11.43;;;6.17;;
17886;SDS011;9069;52.044;7.472;2022-12-18T16:54:39;8.53;;;4.63;;
17886;SDS011;9069;52.044;7.472;2022-12-18T16:57:08;13.03;;;6.53;;
17886;SDS011;9069;52.044;7.472;2022-12-18T16:59:38;10.90;;;5.90;;
17886;SDS011;9069;52.044;7.472;2022-12-18T17:02:06;11.68;;;6.60;;
17886;SDS011;9069;52.044;7.472;2022-12-18T17:04:43;13.23;;;5.72;;
17886;SDS011;9069;52.044;7.472;2022-12-18T17:07:10;11.25;;;6.00;;
17886;SDS011;9069;52.044;7.472;2022-12-18T17:09:37;10.17;;;5.40;;
17886;SDS011;9069;52.044;7.472;2022-12-18T17:12:04;12.40;;;7.03;;
17886;SDS011;9069;52.044;7.472;2022-12-18T17:14:31;12.23;;;6.50;;